Breakabeen, New York
Current Conditions -  °F | °C
As of 12:28 AM on Thursday 27 Nov 2014 (Local Time) from KALB Reporting Station
Light Snow Light Snow  
Wind Chill: 22°   Ceiling: 700
Heat Index: 31°   Visibility: 1.2mi
Dew Point: 28°   Wind: 10mph
Humidity: 89%   Direction: 340°NNW
Pressure: 29.9"   Gusts: NA
Location:  42.5337°N, 74.3385°W
Report Text: KALB 270528Z 34009KT 1 1/4SM -SN BR BKN007 OVC012 M01/M02 A2990 RMK AO2 TWR VIS 1 1/2 P0002 T10061022
Loading
Personal Weather Stations






























Interactive Weather Map New forecast layout! Learn more

10-Day Weather Forecast

Advertisements
Track Severe Weather on mobile